sensor_id;sensor_type;location;lat;lon;timestamp;pressure;altitude;pressure_sealevel;temperature;humidity
45872;BME280;32333;55.844;-3.210;2023-02-04T00:01:50;100960.00;;;7.80;100.00
45872;BME280;32333;55.844;-3.210;2023-02-04T00:04:19;100964.53;;;7.23;100.00
45872;BME280;32333;55.844;-3.210;2023-02-04T00:06:47;100960.83;;;7.43;100.00
45872;BME280;32333;55.844;-3.210;2023-02-04T00:09:14;100961.56;;;7.25;100.00
45872;BME280;32333;55.844;-3.210;2023-02-04T00:11:43;100961.73;;;7.36;100.00
45872;BME280;32333;55.844;-3.210;2023-02-04T00:14:35;100972.57;;;7.33;100.00
45872;BME280;32333;55.844;-3.210;2023-02-04T00:17:03;100970.86;;;6.97;100.00
45872;BME280;32333;55.844;-3.210;2023-02-04T00:19:30;100968.78;;;7.12;100.00
45872;BME280;32333;55.844;-3.210;2023-02-04T00:21:59;100965.82;;;7.09;100.00
45872;BME280;32333;55.844;-3.210;2023-02-04T00:24:26;100971.58;;;7.11;100.00
45872;BME280;32333;55.844;-3.210;2023-02-04T00:26:54;100970.47;;;7.52;100.00
45872;BME280;32333;55.844;-3.210;2023-02-04T00:29:23;100968.13;;;7.16;100.00
45872;BME280;32333;55.844;-3.210;2023-02-04T00:31:51;100971.67;;;7.08;100.00
45872;BME280;32333;55.844;-3.210;2023-02-04T00:34:19;100974.61;;;6.29;100.00
45872;BME280;32333;55.844;-3.210;2023-02-04T00:36:48;100973.61;;;7.37;100.00
45872;BME280;32333;55.844;-3.210;2023-02-04T00:39:15;100972.74;;;7.12;100.00
45872;BME280;32333;55.844;-3.210;2023-02-04T00:41:43;100973.89;;;6.67;100.00
45872;BME280;32333;55.844;-3.210;2023-02-04T00:44:35;100972.98;;;6.81;100.00
45872;BME280;32333;55.844;-3.210;2023-02-04T00:47:03;100975.45;;;6.96;100.00
45872;BME280;32333;55.844;-3.210;2023-02-04T00:49:32;100977.27;;;6.80;100.00
45872;BME280;32333;55.844;-3.210;2023-02-04T00:52:01;100976.68;;;6.62;100.00
45872;BME280;32333;55.844;-3.210;2023-02-04T00:54:28;100976.01;;;6.28;100.00
45872;BME280;32333;55.844;-3.210;2023-02-04T00:56:55;100974.33;;;6.63;100.00
45872;BME280;32333;55.844;-3.210;2023-02-04T00:59:25;100971.09;;;6.86;100.00
45872;BME280;32333;55.844;-3.210;2023-02-04T01:01:52;100969.04;;;6.27;100.00
45872;BME280;32333;55.844;-3.210;2023-02-04T01:04:20;100968.25;;;6.27;100.00
45872;BME280;32333;55.844;-3.210;2023-02-04T01:06:48;100966.22;;;7.06;100.00
45872;BME280;32333;55.844;-3.210;2023-02-04T01:09:17;100965.38;;;7.26;100.00
45872;BME280;32333;55.844;-3.210;2023-02-04T01:11:44;100964.11;;;6.94;100.00
45872;BME280;32333;55.844;-3.210;2023-02-04T01:14:35;100965.28;;;7.67;100.00
45872;BME280;32333;55.844;-3.210;2023-02-04T01:17:03;100965.18;;;6.97;100.00
45872;BME280;32333;55.844;-3.210;2023-02-04T01:19:30;100963.05;;;6.50;100.00
45872;BME280;32333;55.844;-3.210;2023-02-04T01:21:59;100964.23;;;6.73;100.00
45872;BME280;32333;55.844;-3.210;2023-02-04T01:24:28;100963.54;;;6.56;100.00
45872;BME280;32333;55.844;-3.210;2023-02-04T01:26:55;100969.36;;;7.11;100.00
45872;BME280;32333;55.844;-3.210;2023-02-04T01:29:23;100969.46;;;6.84;100.00
45872;BME280;32333;55.844;-3.210;2023-02-04T01:31:50;100968.35;;;6.76;100.00
45872;BME280;32333;55.844;-3.210;2023-02-04T01:34:18;100969.43;;;6.91;100.00
45872;BME280;32333;55.844;-3.210;2023-02-04T01:36:46;100969.43;;;6.53;100.00
45872;BME280;32333;55.844;-3.210;2023-02-04T01:39:14;100970.19;;;6.88;100.00
45872;BME280;32333;55.844;-3.210;2023-02-04T01:41:41;100966.16;;;7.11;100.00
45872;BME280;32333;55.844;-3.210;2023-02-04T01:44:35;100970.74;;;7.33;100.00
45872;BME280;32333;55.844;-3.210;2023-02-04T01:47:02;100969.38;;;7.08;100.00
45872;BME280;32333;55.844;-3.210;2023-02-04T01:49:30;100970.10;;;6.98;100.00
45872;BME280;32333;55.844;-3.210;2023-02-04T01:51:59;100973.99;;;7.03;100.00
45872;BME280;32333;55.844;-3.210;2023-02-04T01:54:27;100978.31;;;6.75;100.00
45872;BME280;32333;55.844;-3.210;2023-02-04T01:56:55;100977.81;;;6.78;100.00
45872;BME280;32333;55.844;-3.210;2023-02-04T01:59:25;100980.30;;;6.45;100.00
45872;BME280;32333;55.844;-3.210;2023-02-04T02:01:53;100981.50;;;6.85;100.00
45872;BME280;32333;55.844;-3.210;2023-02-04T02:04:29;100980.08;;;7.19;100.00
45872;BME280;32333;55.844;-3.210;2023-02-04T02:06:59;100976.08;;;6.49;100.00
45872;BME280;32333;55.844;-3.210;2023-02-04T02:09:28;100973.26;;;6.00;100.00
45872;BME280;32333;55.844;-3.210;2023-02-04T02:11:57;100972.38;;;6.37;100.00
45872;BME280;32333;55.844;-3.210;2023-02-04T02:14:36;100967.83;;;6.74;100.00
45872;BME280;32333;55.844;-3.210;2023-02-04T02:17:03;100967.29;;;6.77;100.00
45872;BME280;32333;55.844;-3.210;2023-02-04T02:19:35;100966.67;;;7.11;100.00
45872;BME280;32333;55.844;-3.210;2023-02-04T02:22:14;100966.92;;;6.84;100.00
45872;BME280;32333;55.844;-3.210;2023-02-04T02:24:43;100968.70;;;6.34;100.00
45872;BME280;32333;55.844;-3.210;2023-02-04T02:28:45;100964.63;;;7.15;100.00
45872;BME280;32333;55.844;-3.210;2023-02-04T02:31:13;100965.20;;;6.80;100.00
45872;BME280;32333;55.844;-3.210;2023-02-04T02:33:41;100970.07;;;6.76;100.00
45872;BME280;32333;55.844;-3.210;2023-02-04T02:36:09;100970.48;;;7.10;100.00
45872;BME280;32333;55.844;-3.210;2023-02-04T02:38:37;100973.08;;;6.81;100.00
45872;BME280;32333;55.844;-3.210;2023-02-04T02:41:05;100977.72;;;7.41;100.00
45872;BME280;32333;55.844;-3.210;2023-02-04T02:44:37;100976.21;;;7.14;100.00
45872;BME280;32333;55.844;-3.210;2023-02-04T02:47:07;100976.26;;;6.69;100.00
45872;BME280;32333;55.844;-3.210;2023-02-04T02:49:39;100979.42;;;7.42;100.00
45872;BME280;32333;55.844;-3.210;2023-02-04T02:52:09;100980.35;;;7.43;100.00
45872;BME280;32333;55.844;-3.210;2023-02-04T02:54:38;100982.49;;;7.23;100.00
45872;BME280;32333;55.844;-3.210;2023-02-04T02:57:12;100979.72;;;7.62;100.00
45872;BME280;32333;55.844;-3.210;2023-02-04T02:59:40;100978.94;;;7.24;100.00
45872;BME280;32333;55.844;-3.210;2023-02-04T03:02:11;100977.45;;;7.54;100.00
45872;BME280;32333;55.844;-3.210;2023-02-04T03:04:42;100973.36;;;7.24;100.00
45872;BME280;32333;55.844;-3.210;2023-02-04T03:07:11;100971.92;;;7.20;100.00
45872;BME280;32333;55.844;-3.210;2023-02-04T03:09:39;100969.01;;;7.90;100.00
45872;BME280;32333;55.844;-3.210;2023-02-04T03:14:36;100968.59;;;8.08;100.00
45872;BME280;32333;55.844;-3.210;2023-02-04T03:17:06;100972.37;;;7.29;100.00
45872;BME280;32333;55.844;-3.210;2023-02-04T03:19:35;100971.17;;;8.11;100.00
45872;BME280;32333;55.844;-3.210;2023-02-04T03:22:04;100974.25;;;8.78;100.00
45872;BME280;32333;55.844;-3.210;2023-02-04T03:24:33;100974.70;;;7.79;100.00
45872;BME280;32333;55.844;-3.210;2023-02-04T03:27:01;100976.23;;;7.61;100.00
45872;BME280;32333;55.844;-3.210;2023-02-04T03:29:29;100975.41;;;8.12;100.00
45872;BME280;32333;55.844;-3.210;2023-02-04T03:31:58;100969.50;;;8.22;100.00
45872;BME280;32333;55.844;-3.210;2023-02-04T03:34:26;100968.87;;;7.91;100.00
45872;BME280;32333;55.844;-3.210;2023-02-04T03:36:53;100971.13;;;8.12;100.00
45872;BME280;32333;55.844;-3.210;2023-02-04T03:39:23;100970.87;;;9.04;100.00
45872;BME280;32333;55.844;-3.210;2023-02-04T03:41:50;100965.13;;;8.10;100.00
45872;BME280;32333;55.844;-3.210;2023-02-04T03:44:36;100967.41;;;7.43;100.00
45872;BME280;32333;55.844;-3.210;2023-02-04T03:47:04;100969.34;;;7.83;100.00
45872;BME280;32333;55.844;-3.210;2023-02-04T03:50:45;100972.82;;;7.62;100.00
45872;BME280;32333;55.844;-3.210;2023-02-04T03:53:20;100973.70;;;7.90;100.00
45872;BME280;32333;55.844;-3.210;2023-02-04T03:56:11;100982.11;;;7.46;100.00
45872;BME280;32333;55.844;-3.210;2023-02-04T03:58:39;100983.78;;;7.41;100.00
45872;BME280;32333;55.844;-3.210;2023-02-04T04:01:17;100986.27;;;7.28;100.00
45872;BME280;32333;55.844;-3.210;2023-02-04T04:03:44;100984.91;;;6.73;100.00
45872;BME280;32333;55.844;-3.210;2023-02-04T04:06:11;100982.91;;;7.14;100.00
45872;BME280;32333;55.844;-3.210;2023-02-04T04:08:39;100983.92;;;7.10;100.00
45872;BME280;32333;55.844;-3.210;2023-02-04T04:11:07;100986.44;;;7.32;100.00
45872;BME280;32333;55.844;-3.210;2023-02-04T04:14:41;100987.85;;;7.67;100.00
45872;BME280;32333;55.844;-3.210;2023-02-04T04:17:09;100989.45;;;6.88;100.00
45872;BME280;32333;55.844;-3.210;2023-02-04T04:19:37;100992.88;;;6.38;100.00
45872;BME280;32333;55.844;-3.210;2023-02-04T04:22:06;100989.29;;;6.23;100.00
45872;BME280;32333;55.844;-3.210;2023-02-04T04:24:35;100993.72;;;6.85;100.00
45872;BME280;32333;55.844;-3.210;2023-02-04T04:27:03;100986.86;;;6.60;100.00
45872;BME280;32333;55.844;-3.210;2023-02-04T04:29:31;100990.50;;;6.94;100.00
45872;BME280;32333;55.844;-3.210;2023-02-04T04:31:59;100987.63;;;6.54;100.00
45872;BME280;32333;55.844;-3.210;2023-02-04T04:34:26;100992.10;;;5.77;100.00
45872;BME280;32333;55.844;-3.210;2023-02-04T04:36:54;100990.17;;;6.99;100.00
45872;BME280;32333;55.844;-3.210;2023-02-04T04:39:23;100988.63;;;6.87;100.00
45872;BME280;32333;55.844;-3.210;2023-02-04T04:41:51;100989.68;;;6.73;100.00
45872;BME280;32333;55.844;-3.210;2023-02-04T04:44:36;100990.99;;;7.30;100.00
45872;BME280;32333;55.844;-3.210;2023-02-04T04:47:04;100997.42;;;6.99;100.00
45872;BME280;32333;55.844;-3.210;2023-02-04T04:49:33;100997.79;;;6.58;100.00
45872;BME280;32333;55.844;-3.210;2023-02-04T04:52:02;100999.33;;;7.47;100.00
45872;BME280;32333;55.844;-3.210;2023-02-04T04:54:30;100996.59;;;7.26;100.00
45872;BME280;32333;55.844;-3.210;2023-02-04T04:56:58;101000.46;;;7.62;100.00
45872;BME280;32333;55.844;-3.210;2023-02-04T04:59:25;100999.53;;;7.20;100.00
45872;BME280;32333;55.844;-3.210;2023-02-04T05:01:53;100991.31;;;7.73;100.00
45872;BME280;32333;55.844;-3.210;2023-02-04T05:04:21;100989.06;;;7.45;100.00
45872;BME280;32333;55.844;-3.210;2023-02-04T05:06:49;100983.93;;;8.23;100.00
45872;BME280;32333;55.844;-3.210;2023-02-04T05:09:17;100983.18;;;9.02;100.00
45872;BME280;32333;55.844;-3.210;2023-02-04T05:11:44;100982.29;;;8.68;100.00
45872;BME280;32333;55.844;-3.210;2023-02-04T05:14:36;100977.55;;;9.36;100.00
45872;BME280;32333;55.844;-3.210;2023-02-04T05:17:04;100977.02;;;8.87;100.00
45872;BME280;32333;55.844;-3.210;2023-02-04T05:19:31;100976.83;;;8.57;100.00
45872;BME280;32333;55.844;-3.210;2023-02-04T05:21:59;100975.29;;;8.98;100.00
45872;BME280;32333;55.844;-3.210;2023-02-04T05:24:27;100980.76;;;7.17;100.00
45872;BME280;32333;55.844;-3.210;2023-02-04T05:26:54;100984.74;;;8.07;100.00
45872;BME280;32333;55.844;-3.210;2023-02-04T05:29:23;100981.14;;;8.30;100.00
45872;BME280;32333;55.844;-3.210;2023-02-04T05:31:51;100981.97;;;8.63;100.00
45872;BME280;32333;55.844;-3.210;2023-02-04T05:34:18;100980.13;;;8.42;100.00
45872;BME280;32333;55.844;-3.210;2023-02-04T05:36:47;100988.09;;;8.88;100.00
45872;BME280;32333;55.844;-3.210;2023-02-04T05:39:15;100990.18;;;8.18;100.00
45872;BME280;32333;55.844;-3.210;2023-02-04T05:41:42;100992.69;;;8.38;100.00
45872;BME280;32333;55.844;-3.210;2023-02-04T05:44:36;101000.35;;;8.22;100.00
45872;BME280;32333;55.844;-3.210;2023-02-04T05:47:04;100998.30;;;7.91;100.00
45872;BME280;32333;55.844;-3.210;2023-02-04T05:49:32;100996.37;;;7.53;100.00
45872;BME280;32333;55.844;-3.210;2023-02-04T05:52:00;100992.85;;;7.67;100.00
45872;BME280;32333;55.844;-3.210;2023-02-04T05:54:28;100996.70;;;7.84;100.00
45872;BME280;32333;55.844;-3.210;2023-02-04T05:56:58;100997.41;;;7.66;100.00
45872;BME280;32333;55.844;-3.210;2023-02-04T05:59:27;100999.47;;;7.55;100.00
45872;BME280;32333;55.844;-3.210;2023-02-04T06:01:55;100999.53;;;7.40;100.00
45872;BME280;32333;55.844;-3.210;2023-02-04T06:04:28;101007.11;;;7.12;100.00
45872;BME280;32333;55.844;-3.210;2023-02-04T06:06:57;101006.94;;;6.89;100.00
45872;BME280;32333;55.844;-3.210;2023-02-04T06:09:26;101006.17;;;7.64;100.00
45872;BME280;32333;55.844;-3.210;2023-02-04T06:11:54;101005.26;;;6.98;100.00
45872;BME280;32333;55.844;-3.210;2023-02-04T06:15:57;101001.97;;;6.96;100.00
45872;BME280;32333;55.844;-3.210;2023-02-04T06:18:27;101000.21;;;7.58;100.00
45872;BME280;32333;55.844;-3.210;2023-02-04T06:20:54;100995.75;;;7.57;100.00
45872;BME280;32333;55.844;-3.210;2023-02-04T06:23:21;100992.17;;;6.12;100.00
45872;BME280;32333;55.844;-3.210;2023-02-04T06:25:50;100990.65;;;5.31;100.00
45872;BME280;32333;55.844;-3.210;2023-02-04T06:28:18;100981.19;;;6.68;100.00
45872;BME280;32333;55.844;-3.210;2023-02-04T06:30:45;100972.96;;;6.36;100.00
45872;BME280;32333;55.844;-3.210;2023-02-04T06:33:14;100983.85;;;6.96;100.00
45872;BME280;32333;55.844;-3.210;2023-02-04T06:35:41;100983.41;;;7.10;100.00
45872;BME280;32333;55.844;-3.210;2023-02-04T06:38:09;100980.07;;;6.65;100.00
45872;BME280;32333;55.844;-3.210;2023-02-04T06:40:38;100982.93;;;6.62;100.00
45872;BME280;32333;55.844;-3.210;2023-02-04T06:44:36;100983.88;;;6.28;100.00
45872;BME280;32333;55.844;-3.210;2023-02-04T06:47:04;100981.47;;;7.34;100.00
45872;BME280;32333;55.844;-3.210;2023-02-04T06:49:32;100980.45;;;7.65;100.00
45872;BME280;32333;55.844;-3.210;2023-02-04T06:52:00;100981.31;;;7.77;100.00
45872;BME280;32333;55.844;-3.210;2023-02-04T06:54:27;100984.16;;;6.70;100.00
45872;BME280;32333;55.844;-3.210;2023-02-04T06:56:54;100976.94;;;7.46;100.00
45872;BME280;32333;55.844;-3.210;2023-02-04T06:59:23;100974.40;;;6.60;100.00
45872;BME280;32333;55.844;-3.210;2023-02-04T07:01:51;100975.97;;;6.76;100.00
45872;BME280;32333;55.844;-3.210;2023-02-04T07:04:19;100975.20;;;6.69;100.00
45872;BME280;32333;55.844;-3.210;2023-02-04T07:06:47;100971.32;;;6.76;100.00
45872;BME280;32333;55.844;-3.210;2023-02-04T07:09:15;100970.02;;;7.17;100.00
45872;BME280;32333;55.844;-3.210;2023-02-04T07:11:42;100970.54;;;6.33;100.00
45872;BME280;32333;55.844;-3.210;2023-02-04T07:14:36;100968.17;;;6.89;100.00
45872;BME280;32333;55.844;-3.210;2023-02-04T07:17:03;100969.25;;;6.74;100.00
45872;BME280;32333;55.844;-3.210;2023-02-04T07:19:30;100971.64;;;6.65;100.00
45872;BME280;32333;55.844;-3.210;2023-02-04T07:21:59;100970.88;;;7.15;100.00
45872;BME280;32333;55.844;-3.210;2023-02-04T07:24:26;100970.73;;;6.70;100.00
45872;BME280;32333;55.844;-3.210;2023-02-04T07:26:54;100967.48;;;6.65;100.00
45872;BME280;32333;55.844;-3.210;2023-02-04T07:29:23;100971.22;;;6.65;100.00
45872;BME280;32333;55.844;-3.210;2023-02-04T07:31:50;100970.70;;;7.12;100.00
45872;BME280;32333;55.844;-3.210;2023-02-04T07:34:18;100972.24;;;6.30;100.00
45872;BME280;32333;55.844;-3.210;2023-02-04T07:37:13;100974.97;;;6.91;100.00
45872;BME280;32333;55.844;-3.210;2023-02-04T07:39:47;100963.88;;;7.34;100.00
45872;BME280;32333;55.844;-3.210;2023-02-04T07:44:38;100974.01;;;7.20;100.00
45872;BME280;32333;55.844;-3.210;2023-02-04T07:47:05;100973.34;;;8.14;100.00
45872;BME280;32333;55.844;-3.210;2023-02-04T07:49:33;100973.48;;;8.66;100.00
45872;BME280;32333;55.844;-3.210;2023-02-04T07:52:00;100973.01;;;7.45;100.00
45872;BME280;32333;55.844;-3.210;2023-02-04T07:54:28;100978.79;;;7.32;100.00
45872;BME280;32333;55.844;-3.210;2023-02-04T07:56:55;100979.87;;;7.24;100.00
45872;BME280;32333;55.844;-3.210;2023-02-04T07:59:23;100975.94;;;6.84;100.00
45872;BME280;32333;55.844;-3.210;2023-02-04T08:01:51;100977.60;;;7.78;100.00
45872;BME280;32333;55.844;-3.210;2023-02-04T08:04:19;100983.14;;;6.42;100.00
45872;BME280;32333;55.844;-3.210;2023-02-04T08:06:47;100981.86;;;6.80;100.00
45872;BME280;32333;55.844;-3.210;2023-02-04T08:09:16;100985.01;;;7.68;100.00
45872;BME280;32333;55.844;-3.210;2023-02-04T08:11:44;100983.14;;;7.37;100.00
45872;BME280;32333;55.844;-3.210;2023-02-04T08:14:36;100982.59;;;6.94;100.00
45872;BME280;32333;55.844;-3.210;2023-02-04T08:17:03;100985.66;;;6.32;100.00
45872;BME280;32333;55.844;-3.210;2023-02-04T08:19:31;100984.54;;;6.22;100.00
45872;BME280;32333;55.844;-3.210;2023-02-04T08:22:00;100983.85;;;6.25;100.00
45872;BME280;32333;55.844;-3.210;2023-02-04T08:24:28;100989.59;;;6.86;100.00
45872;BME280;32333;55.844;-3.210;2023-02-04T08:26:55;100980.87;;;7.62;100.00
45872;BME280;32333;55.844;-3.210;2023-02-04T08:29:23;100983.08;;;7.87;100.00
45872;BME280;32333;55.844;-3.210;2023-02-04T08:31:52;100986.45;;;7.40;100.00
45872;BME280;32333;55.844;-3.210;2023-02-04T08:34:20;100984.93;;;6.84;100.00
45872;BME280;32333;55.844;-3.210;2023-02-04T08:36:47;100987.22;;;7.26;100.00
45872;BME280;32333;55.844;-3.210;2023-02-04T08:39:15;100989.06;;;6.72;100.00
45872;BME280;32333;55.844;-3.210;2023-02-04T08:41:43;100994.44;;;7.32;100.00
45872;BME280;32333;55.844;-3.210;2023-02-04T08:44:36;100993.73;;;7.11;100.00
45872;BME280;32333;55.844;-3.210;2023-02-04T08:47:04;100988.92;;;7.37;100.00
45872;BME280;32333;55.844;-3.210;2023-02-04T08:49:31;100986.87;;;7.15;100.00
45872;BME280;32333;55.844;-3.210;2023-02-04T08:51:59;100983.90;;;6.81;100.00
45872;BME280;32333;55.844;-3.210;2023-02-04T08:54:27;100978.92;;;7.56;100.00
45872;BME280;32333;55.844;-3.210;2023-02-04T08:56:54;100984.45;;;6.81;100.00
45872;BME280;32333;55.844;-3.210;2023-02-04T08:59:22;100988.40;;;7.72;100.00
45872;BME280;32333;55.844;-3.210;2023-02-04T09:01:49;100984.07;;;7.78;100.00
45872;BME280;32333;55.844;-3.210;2023-02-04T09:04:17;100980.72;;;7.74;100.00
45872;BME280;32333;55.844;-3.210;2023-02-04T09:06:46;100983.44;;;7.12;100.00
45872;BME280;32333;55.844;-3.210;2023-02-04T09:09:14;100976.60;;;7.34;100.00
45872;BME280;32333;55.844;-3.210;2023-02-04T09:11:42;100979.73;;;7.35;100.00
45872;BME280;32333;55.844;-3.210;2023-02-04T09:14:35;100974.07;;;6.64;100.00
45872;BME280;32333;55.844;-3.210;2023-02-04T09:17:03;100975.52;;;6.57;100.00
45872;BME280;32333;55.844;-3.210;2023-02-04T09:19:30;100972.72;;;7.13;100.00
45872;BME280;32333;55.844;-3.210;2023-02-04T09:21:58;100971.18;;;6.57;100.00
45872;BME280;32333;55.844;-3.210;2023-02-04T09:24:26;100974.25;;;6.58;100.00
45872;BME280;32333;55.844;-3.210;2023-02-04T09:26:53;100978.09;;;7.02;100.00
45872;BME280;32333;55.844;-3.210;2023-02-04T09:29:20;100979.65;;;6.66;100.00
45872;BME280;32333;55.844;-3.210;2023-02-04T09:31:48;100988.04;;;6.55;100.00
45872;BME280;32333;55.844;-3.210;2023-02-04T09:34:16;100983.93;;;5.91;100.00
45872;BME280;32333;55.844;-3.210;2023-02-04T09:36:43;100990.20;;;6.07;100.00
45872;BME280;32333;55.844;-3.210;2023-02-04T09:39:12;100990.21;;;7.02;100.00
45872;BME280;32333;55.844;-3.210;2023-02-04T09:41:40;100982.26;;;6.55;100.00
45872;BME280;32333;55.844;-3.210;2023-02-04T09:44:37;100980.41;;;6.21;100.00
45872;BME280;32333;55.844;-3.210;2023-02-04T09:47:04;100975.96;;;6.49;100.00
45872;BME280;32333;55.844;-3.210;2023-02-04T09:49:32;100971.62;;;6.52;100.00
45872;BME280;32333;55.844;-3.210;2023-02-04T09:52:00;100972.60;;;6.91;100.00
45872;BME280;32333;55.844;-3.210;2023-02-04T09:54:27;100970.58;;;7.43;100.00
45872;BME280;32333;55.844;-3.210;2023-02-04T09:56:55;100972.25;;;7.59;100.00
45872;BME280;32333;55.844;-3.210;2023-02-04T09:59:28;100971.23;;;6.65;100.00
45872;BME280;32333;55.844;-3.210;2023-02-04T10:01:59;100976.73;;;7.08;100.00
45872;BME280;32333;55.844;-3.210;2023-02-04T10:04:28;100975.36;;;6.13;100.00
45872;BME280;32333;55.844;-3.210;2023-02-04T10:06:58;100978.72;;;6.23;100.00
45872;BME280;32333;55.844;-3.210;2023-02-04T10:09:26;100971.72;;;6.48;100.00
45872;BME280;32333;55.844;-3.210;2023-02-04T10:11:54;100981.64;;;6.46;100.00
45872;BME280;32333;55.844;-3.210;2023-02-04T10:14:35;100979.68;;;6.72;100.00
45872;BME280;32333;55.844;-3.210;2023-02-04T10:17:06;100981.88;;;6.89;100.00
45872;BME280;32333;55.844;-3.210;2023-02-04T10:19:36;100975.03;;;6.43;100.00
45872;BME280;32333;55.844;-3.210;2023-02-04T10:22:11;100969.94;;;6.29;100.00
45872;BME280;32333;55.844;-3.210;2023-02-04T10:24:43;100976.53;;;6.77;100.00
45872;BME280;32333;55.844;-3.210;2023-02-04T10:27:12;100977.79;;;8.06;100.00
45872;BME280;32333;55.844;-3.210;2023-02-04T10:29:41;100973.26;;;6.77;100.00
45872;BME280;32333;55.844;-3.210;2023-02-04T10:32:30;100977.68;;;6.59;100.00
45872;BME280;32333;55.844;-3.210;2023-02-04T10:35:00;100976.16;;;6.73;100.00
45872;BME280;32333;55.844;-3.210;2023-02-04T10:38:04;100976.35;;;6.60;100.00
45872;BME280;32333;55.844;-3.210;2023-02-04T10:40:33;100980.15;;;6.45;100.00
45872;BME280;32333;55.844;-3.210;2023-02-04T10:44:35;100979.30;;;6.92;100.00
45872;BME280;32333;55.844;-3.210;2023-02-04T10:47:05;100972.30;;;6.56;100.00
45872;BME280;32333;55.844;-3.210;2023-02-04T10:49:36;100966.98;;;6.39;100.00
45872;BME280;32333;55.844;-3.210;2023-02-04T10:52:14;100964.47;;;6.60;100.00
45872;BME280;32333;55.844;-3.210;2023-02-04T10:54:44;100962.05;;;6.37;100.00
45872;BME280;32333;55.844;-3.210;2023-02-04T10:58:25;100959.29;;;6.60;100.00
45872;BME280;32333;55.844;-3.210;2023-02-04T11:00:56;100958.80;;;6.51;100.00
45872;BME280;32333;55.844;-3.210;2023-02-04T11:03:26;100957.47;;;6.26;100.00
45872;BME280;32333;55.844;-3.210;2023-02-04T11:05:57;100953.97;;;6.15;100.00
45872;BME280;32333;55.844;-3.210;2023-02-04T11:08:29;100954.61;;;5.95;100.00
45872;BME280;32333;55.844;-3.210;2023-02-04T11:11:00;100951.85;;;6.41;100.00
45872;BME280;32333;55.844;-3.210;2023-02-04T11:14:35;100955.80;;;6.17;100.00
45872;BME280;32333;55.844;-3.210;2023-02-04T11:17:03;100952.06;;;6.28;100.00
45872;BME280;32333;55.844;-3.210;2023-02-04T11:19:35;100958.07;;;6.70;100.00
45872;BME280;32333;55.844;-3.210;2023-02-04T11:22:18;100957.04;;;6.83;100.00
45872;BME280;32333;55.844;-3.210;2023-02-04T11:24:47;100962.08;;;6.76;100.00
45872;BME280;32333;55.844;-3.210;2023-02-04T11:27:24;100962.54;;;6.44;100.00
45872;BME280;32333;55.844;-3.210;2023-02-04T11:30:04;100958.62;;;6.72;100.00
45872;BME280;32333;55.844;-3.210;2023-02-04T11:32:36;100962.01;;;6.18;100.00
45872;BME280;32333;55.844;-3.210;2023-02-04T11:35:21;100965.41;;;7.09;100.00
45872;BME280;32333;55.844;-3.210;2023-02-04T11:37:50;100967.26;;;6.91;100.00
45872;BME280;32333;55.844;-3.210;2023-02-04T11:40:26;100960.46;;;6.70;100.00
45872;BME280;32333;55.844;-3.210;2023-02-04T11:44:37;100959.99;;;6.81;100.00
45872;BME280;32333;55.844;-3.210;2023-02-04T11:47:07;100956.71;;;6.51;100.00
45872;BME280;32333;55.844;-3.210;2023-02-04T11:49:35;100944.45;;;6.59;100.00
45872;BME280;32333;55.844;-3.210;2023-02-04T11:52:04;100951.09;;;7.01;100.00
45872;BME280;32333;55.844;-3.210;2023-02-04T11:54:33;100946.27;;;7.23;100.00
45872;BME280;32333;55.844;-3.210;2023-02-04T11:57:01;100950.85;;;7.06;100.00
45872;BME280;32333;55.844;-3.210;2023-02-04T11:59:28;100946.07;;;7.30;100.00
45872;BME280;32333;55.844;-3.210;2023-02-04T12:02:13;100944.97;;;6.98;100.00
45872;BME280;32333;55.844;-3.210;2023-02-04T12:04:51;100944.15;;;7.10;100.00
45872;BME280;32333;55.844;-3.210;2023-02-04T12:07:28;100942.81;;;6.84;100.00
45872;BME280;32333;55.844;-3.210;2023-02-04T12:09:58;100949.38;;;7.21;100.00
45872;BME280;32333;55.844;-3.210;2023-02-04T12:14:37;100942.26;;;7.36;100.00
45872;BME280;32333;55.844;-3.210;2023-02-04T12:17:38;100945.93;;;6.83;100.00
45872;BME280;32333;55.844;-3.210;2023-02-04T12:20:07;100934.99;;;6.64;100.00
45872;BME280;32333;55.844;-3.210;2023-02-04T12:22:37;100935.90;;;6.65;100.00
45872;BME280;32333;55.844;-3.210;2023-02-04T12:26:08;100936.84;;;6.98;100.00
45872;BME280;32333;55.844;-3.210;2023-02-04T12:28:36;100945.22;;;6.66;100.00
45872;BME280;32333;55.844;-3.210;2023-02-04T12:31:04;100940.58;;;6.92;100.00
45872;BME280;32333;55.844;-3.210;2023-02-04T12:33:32;100942.63;;;6.99;100.00
45872;BME280;32333;55.844;-3.210;2023-02-04T12:36:00;100943.45;;;6.98;100.00
45872;BME280;32333;55.844;-3.210;2023-02-04T12:38:28;100924.64;;;7.41;100.00
45872;BME280;32333;55.844;-3.210;2023-02-04T12:40:55;100924.56;;;6.71;100.00
45872;BME280;32333;55.844;-3.210;2023-02-04T12:44:51;100927.71;;;7.12;100.00
45872;BME280;32333;55.844;-3.210;2023-02-04T12:47:20;100917.60;;;7.22;100.00
45872;BME280;32333;55.844;-3.210;2023-02-04T12:49:50;100910.16;;;7.61;100.00
45872;BME280;32333;55.844;-3.210;2023-02-04T12:52:19;100912.38;;;7.32;100.00
45872;BME280;32333;55.844;-3.210;2023-02-04T12:54:46;100906.47;;;6.45;100.00
45872;BME280;32333;55.844;-3.210;2023-02-04T12:57:13;100913.82;;;6.88;100.00
45872;BME280;32333;55.844;-3.210;2023-02-04T12:59:42;100895.17;;;6.96;100.00
45872;BME280;32333;55.844;-3.210;2023-02-04T13:02:10;100895.85;;;7.11;100.00
45872;BME280;32333;55.844;-3.210;2023-02-04T13:04:38;100890.04;;;7.16;100.00
45872;BME280;32333;55.844;-3.210;2023-02-04T13:07:06;100887.37;;;7.38;100.00
45872;BME280;32333;55.844;-3.210;2023-02-04T13:09:36;100896.93;;;7.03;100.00
45872;BME280;32333;55.844;-3.210;2023-02-04T13:14:36;100897.24;;;7.43;100.00
45872;BME280;32333;55.844;-3.210;2023-02-04T13:17:04;100890.80;;;6.83;100.00
45872;BME280;32333;55.844;-3.210;2023-02-04T13:19:31;100897.13;;;6.38;100.00
45872;BME280;32333;55.844;-3.210;2023-02-04T13:21:59;100904.03;;;7.49;100.00